Riverside, PA (17868)

04:42 PM EDT del 04 Luglio 2015 (GMT -0400)
Mahoning Township | | Change Station
CLOSE
Current Station
Stazione meteo personale
Location: Danville, PA
Altitudine: 510 ft
Stazioni meteo nelle vicinanze

Alt. 510 ft 40.96 °N, 76.58 °W | Updated 1 minute ago

Coperto
Coperto
68.7 °F
Sembra 68.7 °F
N
0.0
Vento Variabile Vento da ONO
Gusts 0.0 mph

Oggi
Massima -- | Minima -- °F
--% Possibilità di precip.
Ieri
Massima -- | Minima -- °F
Precip. -- in
5:39 AM 8:41 PM
Gobba a levante, 90% visible
Pressione 29.97 in
Visibilità 6.0 miglia
Nuvole Coperto 2600 ft
Punto di rugiada 64 °F
Umidità 86%
Piovosità 1.20 in
Spessore del manto nevoso Non disponibile.
Raggi UV 2 fuori da 12
Polline .60 fuori da 12
Qualità dell'aria Non disponibile.
Flu Activity Non disponibile.
METAR KSEG 041953Z AUTO 34003KT 6SM BR OVC026 20/18 A2997 RMK AO2 RAE19 SLP147 P0000 T02000178

More Conditions Fewer Conditions

Pressione 29.97 in
Visibilità 6.0 miglia
Nuvole Coperto 2600 ft
Punto di rugiada 64 °F
Umidità 86%
Piovosità 1.20 in
Spessore del manto nevoso Non disponibile.
Raggi UV 2 fuori da 12
Polline .60 fuori da 12
Qualità dell'aria Non disponibile.
Flu Activity Non disponibile.
METAR KSEG 041953Z AUTO 34003KT 6SM BR OVC026 20/18 A2997 RMK AO2 RAE19 SLP147 P0000 T02000178

More Conditions Fewer Conditions

10-Day Weather Forecast

×

Almanac

Astronomia

Jul. 04, 2015 Alba Tramonto
Ora attuale
Crepuscolo civile
Crepuscolo nautico
Crepuscolo astronomico
Luna
Estensione della luce visibile
Lunghezza del giorno
Tomorrow will be .
, % of the Moon is Illuminated

Gli estremi di oggi

State Highs State Lows

Community

WunderPhotos

Upload Photos

1,835,091 foto caricate!

WunderBlogs® & News

Nearby

Qualità dell'aria

  Qualità dell'aria Indice AQ Inquinante
Not available.

Profondità neve

Stazione Profondità Altitudine

Attività sismica

Città  Distanza Mag. Data & Ora
Minimo Magnitudo Mostrato è 2.5.

Temperature delle acque costiere

Località Temperatura

Stations

Stazioni meteo nelle vicinanze

Ubicazione della stazione Temp. Raffreddamento del vento Punto di rugiada Umidità Vento Precip. Alt. Aggiornato Tipo